Time;durP1;ratioP1;P1;durP2;ratioP2;P2;SDS_P1;SDS_P2;PMS_P1;PMS_P2;Temp;Humidity;BMP_temperature;BMP_pressure;BME280_temperature;BME280_humidity;BME280_pressure;Samples;Min_cycle;Max_cycle;Signal;HPM_P1;HPM_P2
2021/01/28 00:01:32;;;;;;;90.30;35.42;;;;;;;;;;5033917;28;20029;-77
2021/01/28 00:03:58;;;;;;;94.07;37.25;;;;;;;;;;5034254;28;20044;-77
2021/01/28 00:06:24;;;;;;;89.93;34.95;;;;;;;;;;5033882;28;20028;-77
2021/01/28 00:08:50;;;;;;;91.40;36.00;;;;;;;;;;5052194;28;20017;-77
2021/01/28 00:11:16;;;;;;;89.63;34.95;;;;;;;;;;5033575;28;20385;-77
2021/01/28 00:13:42;;;;;;;95.40;35.15;;;;;;;;;;5051693;28;20096;-77
2021/01/28 00:16:08;;;;;;;83.60;33.85;;;;;;;;;;5033945;28;20115;-77
2021/01/28 00:18:34;;;;;;;84.50;34.17;;;;;;;;;;5033434;28;20025;-77
2021/01/28 00:21:00;;;;;;;95.05;34.75;;;;;;;;;;5034037;28;20021;-78
2021/01/28 00:23:26;;;;;;;94.15;34.33;;;;;;;;;;5033799;28;20021;-77
2021/01/28 00:25:52;;;;;;;86.47;33.25;;;;;;;;;;5033996;28;20032;-78
2021/01/28 00:28:20;;;;;;;106.35;34.22;;;;;;;;;;5033710;28;20021;-78
2021/01/28 00:30:47;;;;;;;86.95;34.00;;;;;;;;;;5052067;28;20045;-77
2021/01/28 00:33:14;;;;;;;90.53;33.80;;;;;;;;;;5033597;28;20445;-77
2021/01/28 00:35:41;;;;;;;96.75;35.33;;;;;;;;;;5033621;28;20032;-77
2021/01/28 00:38:10;;;;;;;97.80;35.53;;;;;;;;;;5033561;28;20041;-77
2021/01/28 00:40:36;;;;;;;88.63;34.60;;;;;;;;;;5051206;28;20112;-76
2021/01/28 00:43:03;;;;;;;92.72;34.40;;;;;;;;;;5033854;28;20029;-77
2021/01/28 00:45:30;;;;;;;80.78;31.27;;;;;;;;;;5051493;28;20019;-78
2021/01/28 00:47:56;;;;;;;99.80;35.72;;;;;;;;;;5033407;28;20016;-77
2021/01/28 00:50:24;;;;;;;93.85;36.50;;;;;;;;;;5033518;28;20473;-78
2021/01/28 00:52:50;;;;;;;106.43;35.88;;;;;;;;;;5033597;28;20025;-78
2021/01/28 00:55:17;;;;;;;121.13;37.13;;;;;;;;;;5033458;28;20075;-78
2021/01/28 00:57:44;;;;;;;104.82;35.25;;;;;;;;;;5033674;28;20075;-78
2021/01/28 01:00:13;;;;;;;114.60;37.65;;;;;;;;;;5033550;28;20021;-78
2021/01/28 01:02:41;;;;;;;114.63;36.47;;;;;;;;;;5033421;28;20024;-78
2021/01/28 01:05:07;;;;;;;128.15;39.45;;;;;;;;;;5051461;28;20374;-78
2021/01/28 01:07:33;;;;;;;111.88;37.08;;;;;;;;;;5035458;28;20017;-78
2021/01/28 01:09:59;;;;;;;107.63;37.00;;;;;;;;;;5037132;28;20086;-79
2021/01/28 01:12:25;;;;;;;124.03;36.83;;;;;;;;;;5036693;28;20469;-78
2021/01/28 01:14:51;;;;;;;113.55;37.90;;;;;;;;;;5054950;28;20480;-78
2021/01/28 01:17:17;;;;;;;106.20;36.85;;;;;;;;;;5054840;28;20028;-78
2021/01/28 01:19:44;;;;;;;118.03;34.65;;;;;;;;;;5036706;28;20028;-78
2021/01/28 01:22:10;;;;;;;121.20;37.60;;;;;;;;;;5036973;28;20025;-78
2021/01/28 01:24:36;;;;;;;115.90;35.85;;;;;;;;;;5054278;28;20480;-78
2021/01/28 01:27:03;;;;;;;125.57;37.88;;;;;;;;;;5036821;28;20021;-78
2021/01/28 01:29:29;;;;;;;117.13;35.90;;;;;;;;;;5036475;28;20025;-78
2021/01/28 01:31:55;;;;;;;129.93;35.78;;;;;;;;;;5036723;28;20035;-78
2021/01/28 01:34:21;;;;;;;108.47;35.25;;;;;;;;;;5036444;28;20021;-78
2021/01/28 01:36:47;;;;;;;111.55;36.95;;;;;;;;;;5054248;28;20457;-78
2021/01/28 01:39:13;;;;;;;110.75;34.97;;;;;;;;;;5036534;28;20365;-78
2021/01/28 01:41:39;;;;;;;107.78;33.00;;;;;;;;;;5036270;28;20475;-78
2021/01/28 01:44:05;;;;;;;102.15;32.33;;;;;;;;;;5036443;28;20025;-78
2021/01/28 01:46:32;;;;;;;123.15;38.95;;;;;;;;;;5036074;28;20027;-78
2021/01/28 01:48:59;;;;;;;102.47;34.58;;;;;;;;;;5036233;28;20020;-79
2021/01/28 01:51:27;;;;;;;102.22;35.28;;;;;;;;;;5035735;28;20025;-78
2021/01/28 01:54:00;;;;;;;107.85;34.40;;;;;;;;;;5036411;28;20074;-78
2021/01/28 01:56:37;;;;;;;110.22;34.40;;;;;;;;;;5035949;28;20066;-77
2021/01/28 01:59:07;;;;;;;123.25;36.97;;;;;;;;;;5054097;28;20017;-77
2021/01/28 02:01:56;;;;;;;119.15;33.80;;;;;;;;;;5035868;28;20025;-77
2021/01/28 02:04:23;;;;;;;101.13;33.38;;;;;;;;;;5027952;28;20052;-77
2021/01/28 02:06:52;;;;;;;132.45;35.75;;;;;;;;;;5036072;28;20488;-77
2021/01/28 02:09:18;;;;;;;118.75;33.63;;;;;;;;;;5035951;28;20491;-77
2021/01/28 02:11:44;;;;;;;129.82;37.67;;;;;;;;;;5035562;28;20526;-78
2021/01/28 02:14:11;;;;;;;115.05;34.63;;;;;;;;;;5053868;28;20013;-78
2021/01/28 02:16:39;;;;;;;122.53;33.97;;;;;;;;;;5035455;28;20045;-78
2021/01/28 02:19:09;;;;;;;112.82;33.83;;;;;;;;;;5035266;28;20017;-77
2021/01/28 02:21:35;;;;;;;112.57;36.35;;;;;;;;;;5035600;28;20029;-78
2021/01/28 02:24:22;;;;;;;106.55;32.88;;;;;;;;;;5053932;28;20013;-78
2021/01/28 02:26:49;;;;;;;123.38;33.53;;;;;;;;;;5053653;28;20070;-78
2021/01/28 02:29:15;;;;;;;119.90;35.00;;;;;;;;;;5053570;28;20017;-78
2021/01/28 02:31:44;;;;;;;118.25;33.78;;;;;;;;;;5035300;28;20059;-78
2021/01/28 02:34:10;;;;;;;126.75;39.05;;;;;;;;;;5035469;28;20063;-78
2021/01/28 02:36:48;;;;;;;113.55;35.00;;;;;;;;;;5035315;28;20021;-78
2021/01/28 02:39:16;;;;;;;117.63;36.45;;;;;;;;;;5035472;28;20036;-77
2021/01/28 02:41:43;;;;;;;127.70;35.08;;;;;;;;;;5035069;28;20021;-78
2021/01/28 02:44:09;;;;;;;134.65;35.33;;;;;;;;;;5053283;28;20017;-78
2021/01/28 02:46:36;;;;;;;138.63;37.25;;;;;;;;;;5034959;28;20048;-77
2021/01/28 02:49:02;;;;;;;122.50;35.72;;;;;;;;;;5035109;28;20215;-78
2021/01/28 02:51:28;;;;;;;151.55;38.42;;;;;;;;;;5034965;28;20017;-78
2021/01/28 02:53:55;;;;;;;147.63;39.33;;;;;;;;;;5035178;28;20024;-77
2021/01/28 02:56:21;;;;;;;168.02;39.90;;;;;;;;;;5035084;28;20492;-77
2021/01/28 02:58:48;;;;;;;232.65;40.15;;;;;;;;;;5052800;28;20070;-77
2021/01/28 03:01:14;;;;;;;145.32;37.90;;;;;;;;;;5035031;28;20095;-78
2021/01/28 03:03:40;;;;;;;236.50;41.30;;;;;;;;;;5034802;28;20025;-77
2021/01/28 03:06:06;;;;;;;161.77;38.45;;;;;;;;;;5034965;28;20024;-78
2021/01/28 03:08:33;;;;;;;156.55;40.40;;;;;;;;;;5034645;28;20455;-78
2021/01/28 03:10:59;;;;;;;158.52;40.50;;;;;;;;;;5034876;28;20107;-78
2021/01/28 03:13:25;;;;;;;213.70;41.25;;;;;;;;;;5052527;28;20079;-78
2021/01/28 03:15:51;;;;;;;177.57;36.55;;;;;;;;;;5052627;28;20020;-77
2021/01/28 03:18:18;;;;;;;368.45;47.65;;;;;;;;;;5052554;28;20013;-78
2021/01/28 03:20:44;;;;;;;250.05;42.80;;;;;;;;;;5034412;28;20052;-78
2021/01/28 03:23:11;;;;;;;217.55;42.55;;;;;;;;;;5052582;28;20028;-78
2021/01/28 03:25:37;;;;;;;149.68;41.35;;;;;;;;;;5034351;28;20025;-78
2021/01/28 03:28:04;;;;;;;256.15;45.13;;;;;;;;;;5052432;28;20021;-78
2021/01/28 03:30:32;;;;;;;369.23;48.30;;;;;;;;;;5051506;28;20017;-78
2021/01/28 03:32:58;;;;;;;286.35;45.78;;;;;;;;;;5034492;28;20025;-78
2021/01/28 03:35:25;;;;;;;251.88;42.72;;;;;;;;;;5034433;28;20039;-79
2021/01/28 03:37:51;;;;;;;228.90;43.28;;;;;;;;;;5052022;28;20041;-78
2021/01/28 03:40:19;;;;;;;95.00;26.75;;;;;;;;;;5034341;28;20017;-78
2021/01/28 03:42:45;;;;;;;76.97;25.75;;;;;;;;;;5034096;28;20029;-78
2021/01/28 03:45:11;;;;;;;46.38;15.60;;;;;;;;;;5034247;28;20017;-77
2021/01/28 03:47:37;;;;;;;59.13;17.80;;;;;;;;;;5052121;28;20095;-78
2021/01/28 03:50:04;;;;;;;43.15;15.43;;;;;;;;;;5034251;28;20013;-77
2021/01/28 03:52:30;;;;;;;52.25;15.32;;;;;;;;;;5051851;28;20029;-77
2021/01/28 03:54:56;;;;;;;48.40;15.88;;;;;;;;;;5034286;28;20115;-77
2021/01/28 03:57:22;;;;;;;38.72;11.98;;;;;;;;;;5051806;28;20473;-78
2021/01/28 03:59:48;;;;;;;41.22;12.98;;;;;;;;;;5033969;28;20041;-78
2021/01/28 04:02:14;;;;;;;45.85;12.32;;;;;;;;;;5034328;28;20281;-78
2021/01/28 04:04:40;;;;;;;42.42;11.82;;;;;;;;;;5051791;28;20633;-78
2021/01/28 04:07:06;;;;;;;43.38;12.10;;;;;;;;;;5051959;28;20024;-78
2021/01/28 04:09:32;;;;;;;36.90;12.02;;;;;;;;;;5033792;28;20518;-78
2021/01/28 04:11:59;;;;;;;30.98;11.02;;;;;;;;;;5051927;28;20021;-78
2021/01/28 04:14:25;;;;;;;30.02;9.85;;;;;;;;;;5034027;28;20025;-78
2021/01/28 04:16:51;;;;;;;30.90;9.55;;;;;;;;;;5033760;28;20044;-78
2021/01/28 04:19:17;;;;;;;27.05;8.90;;;;;;;;;;5033825;28;20453;-78
2021/01/28 04:21:43;;;;;;;33.33;11.18;;;;;;;;;;5051830;28;20036;-78
2021/01/28 04:24:09;;;;;;;37.55;11.52;;;;;;;;;;5051859;28;20020;-78
2021/01/28 04:26:35;;;;;;;31.42;10.55;;;;;;;;;;5051576;28;20036;-78
2021/01/28 04:29:02;;;;;;;42.72;11.48;;;;;;;;;;5033898;28;20048;-78
2021/01/28 04:31:28;;;;;;;34.42;12.40;;;;;;;;;;5034023;28;20021;-78
2021/01/28 04:33:54;;;;;;;35.13;10.25;;;;;;;;;;5033691;28;20021;-78
2021/01/28 04:36:21;;;;;;;43.90;11.48;;;;;;;;;;5033858;28;20083;-79
2021/01/28 04:38:47;;;;;;;32.38;9.18;;;;;;;;;;5033503;28;20068;-78
2021/01/28 04:41:16;;;;;;;43.97;11.10;;;;;;;;;;5035560;28;20051;-78
2021/01/28 04:43:42;;;;;;;36.45;9.05;;;;;;;;;;5037429;28;20075;-77
2021/01/28 04:46:11;;;;;;;40.70;10.20;;;;;;;;;;5055568;28;20024;-78
2021/01/28 04:48:37;;;;;;;45.70;11.77;;;;;;;;;;5037227;28;20013;-78
2021/01/28 04:51:04;;;;;;;43.45;12.00;;;;;;;;;;5037238;28;20104;-78
2021/01/28 04:53:33;;;;;;;43.22;11.45;;;;;;;;;;5055153;28;20066;-78
2021/01/28 04:56:02;;;;;;;40.97;13.00;;;;;;;;;;5037403;28;20021;-78
2021/01/28 04:58:28;;;;;;;60.80;14.18;;;;;;;;;;5037348;28;20365;-79
2021/01/28 05:00:54;;;;;;;51.55;13.70;;;;;;;;;;5055130;28;20017;-79
2021/01/28 05:03:23;;;;;;;54.33;16.02;;;;;;;;;;5037495;28;20082;-78
2021/01/28 05:05:53;;;;;;;52.25;15.02;;;;;;;;;;5037139;28;20505;-78
2021/01/28 05:08:19;;;;;;;58.88;16.33;;;;;;;;;;5037218;28;20017;-79
2021/01/28 05:10:46;;;;;;;60.50;15.95;;;;;;;;;;5054840;28;20037;-78
2021/01/28 05:13:23;;;;;;;44.28;12.30;;;;;;;;;;5054928;28;20078;-78
2021/01/28 05:15:49;;;;;;;42.28;12.65;;;;;;;;;;5036808;28;20021;-78
2021/01/28 05:18:32;;;;;;;35.33;12.13;;;;;;;;;;5054728;28;20057;-79
2021/01/28 05:21:06;;;;;;;39.63;12.05;;;;;;;;;;5036832;28;20481;-78
2021/01/28 05:23:34;;;;;;;34.60;10.32;;;;;;;;;;5036582;28;20029;-79
2021/01/28 05:26:00;;;;;;;39.45;11.98;;;;;;;;;;5036789;28;20075;-78
2021/01/28 05:28:29;;;;;;;34.08;10.77;;;;;;;;;;5036740;28;20481;-78
2021/01/28 05:30:55;;;;;;;32.92;11.02;;;;;;;;;;5054485;28;20017;-78
2021/01/28 05:33:24;;;;;;;42.47;12.52;;;;;;;;;;5036565;28;20090;-78
2021/01/28 05:36:01;;;;;;;28.50;11.10;;;;;;;;;;5036408;28;20365;-78
2021/01/28 05:38:28;;;;;;;29.17;9.00;;;;;;;;;;5036343;28;20438;-78
2021/01/28 05:40:58;;;;;;;35.25;9.30;;;;;;;;;;5036373;28;20021;-79
2021/01/28 05:43:33;;;;;;;27.70;9.45;;;;;;;;;;5036646;28;20025;-78
2021/01/28 05:46:17;;;;;;;30.75;9.25;;;;;;;;;;5036267;28;20021;-78
2021/01/28 05:48:44;;;;;;;35.10;9.75;;;;;;;;;;5036040;28;20091;-78
2021/01/28 05:51:16;;;;;;;30.23;9.50;;;;;;;;;;5054241;28;20029;-78
2021/01/28 05:53:56;;;;;;;28.50;8.75;;;;;;;;;;5035155;28;20044;-78
2021/01/28 05:56:23;;;;;;;34.88;10.95;;;;;;;;;;5036236;28;20534;-78
2021/01/28 05:58:50;;;;;;;30.17;8.05;;;;;;;;;;5035893;28;20056;-77
2021/01/28 06:01:42;;;;;;;28.00;7.50;;;;;;;;;;5036068;28;20046;-77
2021/01/28 06:04:11;;;;;;;17.33;6.97;;;;;;;;;;5036162;28;20088;-77
2021/01/28 06:06:56;;;;;;;28.73;7.28;;;;;;;;;;5035873;28;20025;-78
2021/01/28 06:09:37;;;;;;;15.88;5.35;;;;;;;;;;5036070;28;20017;-79
2021/01/28 06:12:22;;;;;;;13.60;4.43;;;;;;;;;;5035913;28;20059;-79
2021/01/28 06:14:48;;;;;;;14.60;4.30;;;;;;;;;;5035634;28;20111;-78
2021/01/28 06:17:23;;;;;;;18.75;4.78;;;;;;;;;;5035847;28;20067;-79
2021/01/28 06:19:57;;;;;;;15.65;3.53;;;;;;;;;;5035495;28;20017;-79
2021/01/28 06:22:38;;;;;;;16.63;4.15;;;;;;;;;;5053653;28;20021;-79
2021/01/28 06:25:07;;;;;;;9.27;3.20;;;;;;;;;;5035797;28;20108;-79
2021/01/28 06:27:45;;;;;;;12.85;4.07;;;;;;;;;;5035654;28;20021;-79
2021/01/28 06:30:14;;;;;;;13.05;3.13;;;;;;;;;;5035560;28;20017;-78
2021/01/28 06:32:40;;;;;;;13.13;4.00;;;;;;;;;;5035338;28;20457;-78
2021/01/28 06:35:30;;;;;;;18.88;5.57;;;;;;;;;;5035602;28;20040;-79
2021/01/28 06:37:56;;;;;;;12.82;4.43;;;;;;;;;;5034998;28;20075;-79
2021/01/28 06:40:29;;;;;;;13.52;4.97;;;;;;;;;;5035430;28;20020;-78
2021/01/28 06:42:58;;;;;;;12.77;5.57;;;;;;;;;;5034954;28;20021;-78
2021/01/28 06:45:27;;;;;;;14.32;4.60;;;;;;;;;;5053235;28;20023;-78
2021/01/28 06:48:11;;;;;;;10.52;3.60;;;;;;;;;;5034899;28;20013;-78
2021/01/28 06:50:56;;;;;;;15.98;5.90;;;;;;;;;;5053154;28;20021;-79
2021/01/28 06:53:28;;;;;;;13.95;5.57;;;;;;;;;;5053045;28;20029;-79
2021/01/28 06:56:20;;;;;;;7.93;4.30;;;;;;;;;;5034964;28;20048;-78
2021/01/28 06:58:56;;;;;;;17.50;6.68;;;;;;;;;;5049365;28;20112;-78
2021/01/28 07:01:28;;;;;;;14.60;5.70;;;;;;;;;;5035119;28;20045;-78
2021/01/28 07:04:01;;;;;;;11.80;5.10;;;;;;;;;;5051687;28;20017;-78
2021/01/28 07:06:33;;;;;;;12.93;6.07;;;;;;;;;;5033677;28;20013;-78
2021/01/28 07:08:59;;;;;;;20.02;7.57;;;;;;;;;;5048961;28;20040;-78
2021/01/28 07:11:28;;;;;;;19.75;10.07;;;;;;;;;;5051421;28;20048;-78
2021/01/28 07:13:54;;;;;;;17.05;6.85;;;;;;;;;;5051170;28;20021;-78
2021/01/28 07:16:22;;;;;;;18.55;7.10;;;;;;;;;;5033212;28;20434;-79
2021/01/28 07:18:50;;;;;;;17.55;7.95;;;;;;;;;;5032828;28;20044;-78
2021/01/28 07:21:27;;;;;;;15.02;6.97;;;;;;;;;;5031325;28;20533;-78
2021/01/28 07:24:00;;;;;;;16.30;6.63;;;;;;;;;;5034454;28;20298;-78
2021/01/28 07:26:42;;;;;;;14.02;5.60;;;;;;;;;;5034522;28;20114;-79
2021/01/28 07:29:27;;;;;;;16.90;6.30;;;;;;;;;;5051323;28;20071;-79
2021/01/28 07:31:53;;;;;;;15.98;5.78;;;;;;;;;;5051555;28;20115;-79
2021/01/28 07:34:19;;;;;;;14.05;6.65;;;;;;;;;;5034185;28;20045;-79
2021/01/28 07:36:47;;;;;;;13.82;6.18;;;;;;;;;;5051534;28;20471;-80
2021/01/28 07:39:43;;;;;;;9.88;4.97;;;;;;;;;;5051728;28;20033;-79
2021/01/28 07:42:25;;;;;;;12.00;4.85;;;;;;;;;;5021672;28;20033;-79
2021/01/28 07:44:53;;;;;;;12.10;4.90;;;;;;;;;;5033664;28;20110;-80
2021/01/28 07:47:31;;;;;;;12.38;5.10;;;;;;;;;;5034146;28;20108;-79
2021/01/28 07:50:16;;;;;;;17.63;6.18;;;;;;;;;;5051585;28;20029;-79
2021/01/28 07:52:42;;;;;;;18.13;5.63;;;;;;;;;;5033609;28;20021;-79
2021/01/28 07:55:27;;;;;;;14.38;5.18;;;;;;;;;;5038244;28;20052;-79
2021/01/28 07:57:53;;;;;;;13.73;5.28;;;;;;;;;;5069450;28;20017;-77
2021/01/28 08:00:20;;;;;;;11.52;5.20;;;;;;;;;;5041792;28;20449;-79
2021/01/28 08:03:00;;;;;;;8.05;3.70;;;;;;;;;;5032703;28;20028;-79
2021/01/28 08:05:26;;;;;;;;;;;;;;;;;;5049164;28;20263;-78
2021/01/28 08:08:14;;;;;;;11.48;4.90;;;;;;;;;;5032738;28;19959;-78
2021/01/28 08:10:41;;;;;;;8.93;4.40;;;;;;;;;;5032556;28;20112;-79
2021/01/28 08:13:21;;;;;;;10.00;4.25;;;;;;;;;;5032574;28;20075;-79
2021/01/28 08:15:49;;;;;;;11.60;5.88;;;;;;;;;;5049595;28;20461;-78
2021/01/28 08:18:18;;;;;;;12.77;6.47;;;;;;;;;;5055112;28;20414;-79
2021/01/28 08:20:44;;;;;;;9.88;5.15;;;;;;;;;;5034676;28;20346;-78
2021/01/28 08:23:16;;;;;;;10.35;5.25;;;;;;;;;;5036999;28;20108;-78
2021/01/28 08:25:51;;;;;;;13.27;6.30;;;;;;;;;;5036734;28;20025;-79
2021/01/28 08:28:18;;;;;;;15.50;6.07;;;;;;;;;;5036765;28;20079;-79
2021/01/28 08:30:44;;;;;;;15.65;6.47;;;;;;;;;;5033969;28;20021;-79
2021/01/28 08:33:21;;;;;;;12.75;5.85;;;;;;;;;;5036583;28;20021;-79
2021/01/28 08:35:49;;;;;;;11.30;5.65;;;;;;;;;;5034313;28;20041;-78
2021/01/28 08:38:17;;;;;;;10.68;5.00;;;;;;;;;;5054403;28;20473;-79
2021/01/28 08:40:47;;;;;;;11.13;5.05;;;;;;;;;;5033757;28;20024;-78
2021/01/28 08:43:19;;;;;;;12.87;5.80;;;;;;;;;;5036645;28;20066;-79
2021/01/28 08:45:47;;;;;;;12.50;5.75;;;;;;;;;;5051756;28;20809;-79
2021/01/28 08:48:15;;;;;;;9.13;4.70;;;;;;;;;;5036579;28;20052;-78
2021/01/28 08:50:42;;;;;;;10.60;5.47;;;;;;;;;;5036177;28;20070;-79
2021/01/28 08:53:14;;;;;;;9.85;5.07;;;;;;;;;;5036003;28;20023;-78
2021/01/28 08:55:40;;;;;;;9.73;5.20;;;;;;;;;;5036265;28;20024;-78
2021/01/28 08:58:12;;;;;;;10.48;4.72;;;;;;;;;;5037252;28;20166;-78
2021/01/28 09:00:40;;;;;;;11.02;5.78;;;;;;;;;;5037417;28;20527;-79
2021/01/28 09:03:07;;;;;;;9.82;5.75;;;;;;;;;;5037023;28;20711;-79
2021/01/28 09:05:33;;;;;;;11.63;5.55;;;;;;;;;;5031114;28;20013;-79
2021/01/28 09:08:08;;;;;;;11.02;5.45;;;;;;;;;;5036986;28;20056;-79
2021/01/28 09:10:34;;;;;;;10.38;4.85;;;;;;;;;;5038877;28;20123;-79
2021/01/28 09:13:18;;;;;;;9.75;4.93;;;;;;;;;;5038439;28;20412;-78
2021/01/28 09:15:44;;;;;;;11.25;6.07;;;;;;;;;;5038248;28;20083;-78
2021/01/28 09:18:21;;;;;;;12.55;7.28;;;;;;;;;;5036958;28;20116;-79
2021/01/28 09:20:48;;;;;;;11.48;5.72;;;;;;;;;;5036961;28;20028;-78
2021/01/28 09:23:18;;;;;;;13.30;5.97;;;;;;;;;;5037840;28;20021;-78
2021/01/28 09:25:44;;;;;;;;;;;;;;;;;;5038517;28;20407;-79
2021/01/28 09:28:23;;;;;;;12.50;7.00;;;;;;;;;;5037373;28;20001;-79
2021/01/28 09:30:51;;;;;;;13.60;7.23;;;;;;;;;;5037337;28;20036;-78
2021/01/28 09:33:33;;;;;;;14.10;7.20;;;;;;;;;;5034137;28;20029;-78
2021/01/28 09:36:04;;;;;;;14.65;7.53;;;;;;;;;;5031909;28;20017;-79
2021/01/28 09:38:30;;;;;;;17.88;8.90;;;;;;;;;;5036664;28;20044;-78
2021/01/28 09:41:09;;;;;;;9.75;4.97;;;;;;;;;;5033759;28;20020;-80
2021/01/28 09:43:36;;;;;;;12.65;7.80;;;;;;;;;;5036233;28;20027;-79
2021/01/28 09:46:17;;;;;;;15.40;8.02;;;;;;;;;;5035467;28;20083;-82
2021/01/28 09:48:43;;;;;;;12.93;6.38;;;;;;;;;;5033904;28;20416;-76
2021/01/28 09:51:11;;;;;;;12.30;7.20;;;;;;;;;;5053013;28;20013;-77
2021/01/28 09:53:37;;;;;;;15.30;9.57;;;;;;;;;;5032658;28;20473;-79
2021/01/28 09:56:04;;;;;;;15.75;10.02;;;;;;;;;;5034241;28;20024;-81
2021/01/28 09:58:30;;;;;;;17.98;9.95;;;;;;;;;;5036599;28;20070;-79
2021/01/28 10:00:56;;;;;;;19.75;11.30;;;;;;;;;;5035637;28;20017;-79
2021/01/28 10:03:24;;;;;;;15.57;10.68;;;;;;;;;;5036125;28;20442;-80
2021/01/28 10:05:50;;;;;;;14.50;8.70;;;;;;;;;;5035672;28;20106;-83
2021/01/28 10:08:17;;;;;;;18.23;10.35;;;;;;;;;;5036237;28;20370;-79
2021/01/28 10:10:43;;;;;;;19.67;13.20;;;;;;;;;;5036687;28;20445;-78
2021/01/28 10:13:11;;;;;;;17.63;11.18;;;;;;;;;;5036508;28;20028;-81
2021/01/28 10:15:37;;;;;;;15.80;9.00;;;;;;;;;;5036995;28;20052;-83
2021/01/28 10:18:03;;;;;;;21.08;13.30;;;;;;;;;;5036943;28;20021;-81
2021/01/28 10:20:29;;;;;;;12.48;5.53;;;;;;;;;;5037277;28;20021;-77
2021/01/28 10:23:00;;;;;;;11.38;4.50;;;;;;;;;;5035851;28;20021;-77
2021/01/28 10:25:26;;;;;;;;;;;;;;;;;;5036385;28;20580;-78
2021/01/28 10:27:53;;;;;;;19.60;10.38;;;;;;;;;;5035790;28;19950;-78
2021/01/28 10:30:19;;;;;;;17.42;10.38;;;;;;;;;;5035987;28;20017;-79
2021/01/28 10:32:45;;;;;;;20.63;12.35;;;;;;;;;;5035462;28;20029;-78
2021/01/28 10:35:12;;;;;;;18.70;11.52;;;;;;;;;;5035608;28;20017;-78
2021/01/28 10:37:38;;;;;;;19.42;10.95;;;;;;;;;;5034713;28;20044;-78
2021/01/28 10:40:06;;;;;;;22.17;12.43;;;;;;;;;;5034144;28;20017;-79
2021/01/28 10:42:38;;;;;;;21.02;12.65;;;;;;;;;;5012231;28;20033;-79
2021/01/28 10:45:05;;;;;;;20.02;12.10;;;;;;;;;;5034181;28;20058;-78
2021/01/28 10:47:31;;;;;;;19.10;10.90;;;;;;;;;;5034706;28;20055;-79
2021/01/28 10:49:57;;;;;;;19.27;13.23;;;;;;;;;;5023949;28;20067;-80
2021/01/28 10:52:23;;;;;;;18.95;10.75;;;;;;;;;;5034523;28;20029;-79
2021/01/28 10:54:49;;;;;;;16.98;9.60;;;;;;;;;;5034097;28;20021;-79
2021/01/28 10:57:15;;;;;;;16.50;10.23;;;;;;;;;;5023546;28;20017;-77
2021/01/28 10:59:41;;;;;;;19.60;11.95;;;;;;;;;;5034248;28;20021;-77
2021/01/28 11:02:07;;;;;;;20.13;13.10;;;;;;;;;;5024102;28;20033;-77
2021/01/28 11:04:33;;;;;;;19.23;13.20;;;;;;;;;;5025373;28;20024;-79
2021/01/28 11:06:59;;;;;;;19.90;12.15;;;;;;;;;;5025768;28;20347;-77
2021/01/28 11:09:25;;;;;;;20.65;14.10;;;;;;;;;;5035458;28;20106;-79
2021/01/28 11:11:51;;;;;;;20.77;12.48;;;;;;;;;;5035553;28;20361;-77
2021/01/28 11:14:17;;;;;;;13.38;8.13;;;;;;;;;;5034886;28;20542;-77
2021/01/28 11:16:43;;;;;;;17.83;11.60;;;;;;;;;;5053867;28;20549;-78
2021/01/28 11:19:09;;;;;;;16.70;10.65;;;;;;;;;;5035982;28;20362;-78
2021/01/28 11:21:35;;;;;;;11.57;6.15;;;;;;;;;;5035822;28;20457;-77
2021/01/28 11:24:01;;;;;;;17.48;10.30;;;;;;;;;;5035447;28;20024;-77
2021/01/28 11:26:27;;;;;;;16.83;10.57;;;;;;;;;;5035527;28;20025;-78
2021/01/28 11:28:53;;;;;;;15.85;9.88;;;;;;;;;;5033996;28;20016;-77
2021/01/28 11:31:19;;;;;;;16.38;9.65;;;;;;;;;;5051673;28;20456;-78
2021/01/28 11:33:45;;;;;;;17.55;9.45;;;;;;;;;;5033357;28;20109;-77
2021/01/28 11:36:11;;;;;;;15.77;10.77;;;;;;;;;;5033202;28;20130;-78
2021/01/28 11:38:37;;;;;;;17.95;11.57;;;;;;;;;;5033185;28;20076;-78
2021/01/28 11:41:04;;;;;;;16.25;10.63;;;;;;;;;;5033084;28;20021;-78
2021/01/28 11:43:31;;;;;;;11.88;7.40;;;;;;;;;;5033545;28;20385;-78
2021/01/28 11:45:57;;;;;;;13.32;7.93;;;;;;;;;;5033065;28;20070;-77
2021/01/28 11:48:23;;;;;;;9.70;6.47;;;;;;;;;;5033176;28;20013;-77
2021/01/28 11:50:50;;;;;;;11.77;7.88;;;;;;;;;;5032520;28;20021;-78
2021/01/28 11:53:16;;;;;;;13.70;9.05;;;;;;;;;;5031249;28;20325;-78
2021/01/28 11:55:42;;;;;;;11.63;7.78;;;;;;;;;;5033287;28;20099;-79
2021/01/28 11:58:09;;;;;;;11.98;8.02;;;;;;;;;;5033666;28;20013;-77
2021/01/28 12:00:35;;;;;;;11.38;6.55;;;;;;;;;;5034660;28;20029;-77
2021/01/28 12:03:03;;;;;;;9.98;5.28;;;;;;;;;;5034183;28;20021;-77
2021/01/28 12:05:29;;;;;;;8.63;5.30;;;;;;;;;;5034556;28;20017;-77
2021/01/28 12:07:56;;;;;;;11.95;7.18;;;;;;;;;;5033600;28;20017;-79
2021/01/28 12:10:24;;;;;;;11.88;7.45;;;;;;;;;;5052672;28;20013;-77
2021/01/28 12:12:50;;;;;;;11.18;7.25;;;;;;;;;;5034039;28;20039;-78
2021/01/28 12:15:17;;;;;;;9.65;6.25;;;;;;;;;;5034156;28;20094;-77
2021/01/28 12:17:44;;;;;;;9.70;6.20;;;;;;;;;;5033885;28;20036;-78
2021/01/28 12:20:10;;;;;;;9.65;5.13;;;;;;;;;;5052467;28;20017;-79
2021/01/28 12:22:38;;;;;;;13.35;8.20;;;;;;;;;;5031655;28;20115;-78
2021/01/28 12:25:04;;;;;;;12.52;6.97;;;;;;;;;;5014186;28;20045;-79
2021/01/28 12:27:30;;;;;;;11.25;7.70;;;;;;;;;;5014346;28;20053;-78
2021/01/28 12:29:57;;;;;;;11.15;6.70;;;;;;;;;;5014826;28;20088;-78
2021/01/28 12:32:23;;;;;;;9.13;6.07;;;;;;;;;;5014574;28;20025;-78
2021/01/28 12:34:49;;;;;;;11.95;7.45;;;;;;;;;;5032909;28;20087;-79
2021/01/28 12:37:15;;;;;;;8.95;4.65;;;;;;;;;;5032518;28;20108;-78
2021/01/28 12:39:41;;;;;;;10.68;6.20;;;;;;;;;;5014337;28;20095;-78
2021/01/28 12:42:07;;;;;;;8.63;5.53;;;;;;;;;;5014334;28;20021;-79
2021/01/28 12:44:33;;;;;;;9.30;5.10;;;;;;;;;;5014784;28;20025;-79
2021/01/28 12:46:59;;;;;;;9.45;6.43;;;;;;;;;;5032336;28;20025;-79
2021/01/28 12:49:26;;;;;;;8.73;6.00;;;;;;;;;;5033263;28;20025;-80
2021/01/28 12:51:53;;;;;;;8.35;5.28;;;;;;;;;;5014550;28;20022;-77
2021/01/28 12:54:19;;;;;;;10.65;5.93;;;;;;;;;;5015335;28;20032;-77
2021/01/28 12:56:46;;;;;;;12.15;7.20;;;;;;;;;;5032560;28;20044;-76
2021/01/28 12:59:12;;;;;;;9.02;5.40;;;;;;;;;;5032213;28;20450;-78
2021/01/28 13:01:38;;;;;;;8.70;4.57;;;;;;;;;;5015424;28;20017;-78
2021/01/28 13:04:04;;;;;;;9.35;5.78;;;;;;;;;;5018005;28;20018;-78
2021/01/28 13:06:30;;;;;;;8.35;5.55;;;;;;;;;;5017976;28;20462;-77
2021/01/28 13:08:57;;;;;;;8.20;5.38;;;;;;;;;;5018890;28;20024;-81
2021/01/28 13:11:23;;;;;;;7.90;5.40;;;;;;;;;;5018882;28;20378;-80
2021/01/28 13:13:49;;;;;;;8.35;5.10;;;;;;;;;;5018523;28;20029;-81
2021/01/28 13:16:16;;;;;;;7.45;4.55;;;;;;;;;;5018174;28;20017;-80
2021/01/28 13:18:42;;;;;;;7.95;4.63;;;;;;;;;;5020077;28;20048;-79
2021/01/28 13:21:08;;;;;;;7.43;4.07;;;;;;;;;;5037909;28;20040;-79
2021/01/28 13:23:34;;;;;;;6.45;3.85;;;;;;;;;;5038762;28;20538;-80
2021/01/28 13:26:00;;;;;;;6.40;4.05;;;;;;;;;;5037748;28;20531;-82
2021/01/28 13:28:26;;;;;;;6.60;3.90;;;;;;;;;;5037750;28;20021;-79
2021/01/28 13:30:53;;;;;;;6.90;4.43;;;;;;;;;;5038248;28;20025;-79
2021/01/28 13:33:19;;;;;;;6.88;4.03;;;;;;;;;;5038347;28;20029;-80
2021/01/28 13:35:45;;;;;;;6.25;3.47;;;;;;;;;;5037994;28;20120;-79
2021/01/28 13:38:11;;;;;;;7.20;4.03;;;;;;;;;;5037323;28;20091;-81
2021/01/28 13:40:37;;;;;;;9.82;6.10;;;;;;;;;;5037979;28;20465;-80
2021/01/28 13:43:03;;;;;;;7.88;4.75;;;;;;;;;;5037750;28;20369;-80
2021/01/28 13:45:30;;;;;;;8.57;5.43;;;;;;;;;;5038102;28;20445;-80
2021/01/28 13:47:57;;;;;;;8.05;4.57;;;;;;;;;;5037416;28;20048;-81
2021/01/28 13:50:25;;;;;;;8.65;5.20;;;;;;;;;;5037332;28;20335;-79
2021/01/28 13:52:51;;;;;;;8.30;4.78;;;;;;;;;;5037738;28;20051;-80
2021/01/28 13:55:17;;;;;;;7.85;4.93;;;;;;;;;;5037539;28;20221;-81
2021/01/28 13:57:43;;;;;;;6.97;4.25;;;;;;;;;;5055089;28;20021;-80
2021/01/28 14:00:10;;;;;;;8.00;4.57;;;;;;;;;;5037482;28;20017;-82
2021/01/28 14:02:36;;;;;;;6.38;3.45;;;;;;;;;;5055341;28;20357;-81
2021/01/28 14:05:02;;;;;;;6.80;3.88;;;;;;;;;;5055814;28;20013;-81
2021/01/28 14:07:28;;;;;;;5.65;3.08;;;;;;;;;;5037555;28;20534;-81
2021/01/28 14:09:54;;;;;;;6.18;3.38;;;;;;;;;;5037593;28;20024;-81
2021/01/28 14:12:21;;;;;;;6.35;3.70;;;;;;;;;;5037291;28;20040;-82
2021/01/28 14:14:47;;;;;;;6.30;3.85;;;;;;;;;;5036557;28;20019;-80
2021/01/28 14:17:13;;;;;;;8.85;3.83;;;;;;;;;;5054861;28;20052;-82
2021/01/28 14:19:39;;;;;;;6.88;3.90;;;;;;;;;;5036703;28;20017;-81
2021/01/28 14:22:05;;;;;;;8.57;4.35;;;;;;;;;;5037397;28;20028;-81
2021/01/28 14:24:31;;;;;;;6.80;3.88;;;;;;;;;;5036536;28;20167;-82
2021/01/28 14:27:00;;;;;;;6.80;3.90;;;;;;;;;;5053832;28;20131;-81
2021/01/28 14:29:26;;;;;;;7.03;4.20;;;;;;;;;;5055123;28;20068;-79
2021/01/28 14:31:53;;;;;;;7.20;4.10;;;;;;;;;;5054611;28;20502;-79